Time;durP1;ratioP1;P1;durP2;ratioP2;P2;SDS_P1;SDS_P2;PMS_P1;PMS_P2;Temp;Humidity;BMP_temperature;BMP_pressure;BME280_temperature;BME280_humidity;BME280_pressure;Samples;Min_cycle;Max_cycle;Signal;HPM_P1;HPM_P2
2023/04/10 00:02:12;;;;;;;15.70;10.83;;;5.10;91.40;;;;;;5087759;28;20849;-60
2023/04/10 00:04:38;;;;;;;20.07;12.50;;;5.00;91.30;;;;;;5068081;28;21114;-60
2023/04/10 00:07:05;;;;;;;22.63;10.33;;;4.90;91.50;;;;;;5060701;28;20618;-60
2023/04/10 00:09:32;;;;;;;17.00;10.80;;;4.90;91.70;;;;;;5076250;28;20478;-60
2023/04/10 00:12:00;;;;;;;22.07;13.00;;;4.80;91.50;;;;;;5071977;28;20478;-60
2023/04/10 00:14:27;;;;;;;21.00;8.87;;;4.60;91.20;;;;;;5057443;28;21405;-60
2023/04/10 00:16:53;;;;;;;20.63;12.50;;;4.60;91.10;;;;;;5081376;28;20478;-60
2023/04/10 00:19:20;;;;;;;17.77;10.60;;;4.50;91.20;;;;;;5075358;28;20489;-60
2023/04/10 00:21:47;;;;;;;29.17;14.13;;;4.30;91.90;;;;;;5071271;28;20480;-60
2023/04/10 00:24:13;;;;;;;22.33;12.37;;;4.20;92.80;;;;;;5073416;28;21324;-60
2023/04/10 00:26:40;;;;;;;17.37;11.00;;;4.20;93.00;;;;;;5058619;28;20481;-60
2023/04/10 00:29:08;;;;;;;17.43;8.27;;;4.30;92.40;;;;;;5060285;28;21192;-60
2023/04/10 00:31:35;;;;;;;21.83;12.43;;;4.30;92.10;;;;;;5076388;28;20490;-60
2023/04/10 00:34:02;;;;;;;18.90;11.00;;;4.40;92.10;;;;;;5081360;28;21316;-60
2023/04/10 00:36:28;;;;;;;22.73;10.30;;;4.40;92.00;;;;;;5056492;28;20903;-60
2023/04/10 00:38:55;;;;;;;21.93;13.20;;;4.50;92.00;;;;;;5080151;28;20527;-60
2023/04/10 00:41:22;;;;;;;25.40;11.40;;;4.50;91.90;;;;;;5060419;28;20481;-60
2023/04/10 00:43:49;;;;;;;28.50;13.27;;;4.40;91.90;;;;;;5076319;28;20566;-61
2023/04/10 00:46:17;;;;;;;18.03;10.90;;;4.30;92.00;;;;;;5061962;28;20486;-60
2023/04/10 00:48:44;;;;;;;18.13;11.30;;;4.30;92.20;;;;;;5063200;28;20478;-60
2023/04/10 00:51:12;;;;;;;20.03;9.97;;;4.30;92.40;;;;;;5070303;28;20718;-60
2023/04/10 00:53:38;;;;;;;24.80;14.43;;;4.30;92.20;;;;;;5079854;28;20474;-60
2023/04/10 00:56:06;;;;;;;13.80;8.70;;;4.30;92.30;;;;;;5076006;28;20485;-60
2023/04/10 00:58:33;;;;;;;20.87;10.00;;;4.20;92.30;;;;;;5090583;28;20820;-60
2023/04/10 01:01:00;;;;;;;25.53;16.00;;;4.20;92.30;;;;;;5086508;28;20546;-61
2023/04/10 01:03:28;;;;;;;20.33;12.10;;;4.20;92.50;;;;;;5073848;28;20488;-60
2023/04/10 01:06:08;;;;;;;35.33;15.50;;;4.20;92.60;;;;;;5060007;28;20490;-60
2023/04/10 01:08:45;;;;;;;19.47;11.00;;;4.20;92.70;;;;;;5056500;28;20902;-60
2023/04/10 01:11:18;;;;;;;22.87;11.53;;;4.20;92.50;;;;;;5086590;28;20534;-60
2023/04/10 01:13:52;;;;;;;16.27;11.07;;;4.30;92.20;;;;;;5084350;28;20481;-60
2023/04/10 01:16:26;;;;;;;21.03;10.60;;;4.30;92.20;;;;;;5085450;28;20498;-60
2023/04/10 01:19:00;;;;;;;29.13;16.63;;;4.30;92.00;;;;;;5085153;28;20498;-60
2023/04/10 01:21:30;;;;;;;16.03;10.63;;;4.30;92.20;;;;;;5085282;28;20924;-60
2023/04/10 01:24:15;;;;;;;23.70;13.03;;;4.30;92.10;;;;;;5073569;28;20469;-60
2023/04/10 01:26:56;;;;;;;17.13;11.20;;;4.30;92.00;;;;;;5065749;28;21081;-60
2023/04/10 01:29:28;;;;;;;16.80;9.90;;;4.20;91.90;;;;;;5067536;28;20567;-60
2023/04/10 01:32:01;;;;;;;29.07;16.33;;;4.00;92.10;;;;;;5082793;28;21258;-60
2023/04/10 01:34:35;;;;;;;15.03;10.00;;;3.80;92.70;;;;;;5047603;28;20488;-60
2023/04/10 01:37:04;;;;;;;23.93;13.77;;;3.80;93.20;;;;;;5072789;28;20468;-60
2023/04/10 01:39:37;;;;;;;23.47;12.43;;;3.80;93.50;;;;;;5062609;28;20470;-61
2023/04/10 01:42:06;;;;;;;19.60;12.07;;;3.80;93.60;;;;;;5070748;28;20883;-60
2023/04/10 01:44:37;;;;;;;16.53;9.60;;;3.90;93.30;;;;;;5082185;28;20489;-60
2023/04/10 01:47:06;;;;;;;17.47;10.13;;;4.00;93.30;;;;;;5032729;28;20501;-60
2023/04/10 01:49:34;;;;;;;22.80;12.10;;;4.00;93.10;;;;;;5079318;28;20509;-60
2023/04/10 01:52:02;;;;;;;28.67;13.17;;;4.10;92.80;;;;;;5078756;28;21092;-60
2023/04/10 01:54:31;;;;;;;19.27;11.83;;;4.10;92.80;;;;;;5091051;28;20527;-60
2023/04/10 01:56:58;;;;;;;24.93;14.03;;;4.20;92.90;;;;;;5078215;28;20479;-60
2023/04/10 01:59:26;;;;;;;20.90;9.20;;;4.20;92.90;;;;;;5068083;28;20482;-60
2023/04/10 02:01:57;;;;;;;34.33;18.67;;;4.20;92.90;;;;;;5064780;28;21153;-60
2023/04/10 02:04:25;;;;;;;25.57;15.47;;;4.10;93.00;;;;;;5070682;28;20481;-60
2023/04/10 02:07:02;;;;;;;26.63;14.00;;;4.20;93.00;;;;;;5073955;28;20593;-60
2023/04/10 02:09:40;;;;;;;30.17;12.57;;;4.20;93.10;;;;;;5060124;28;20465;-60
2023/04/10 02:12:10;;;;;;;16.57;11.60;;;4.20;93.30;;;;;;5080482;28;20477;-60
2023/04/10 02:14:41;;;;;;;23.20;12.40;;;4.20;93.20;;;;;;5089097;28;20481;-60
2023/04/10 02:17:13;;;;;;;34.03;10.17;;;4.20;92.50;;;;;;5085344;28;20475;-60
2023/04/10 02:19:41;;;;;;;18.23;11.30;;;4.20;92.40;;;;;;5048338;28;20860;-60
2023/04/10 02:22:08;;;;;;;15.13;8.90;;;4.30;92.30;;;;;;5074165;28;20806;-60
2023/04/10 02:24:35;;;;;;;18.90;9.30;;;4.30;92.20;;;;;;5065104;28;20476;-60
2023/04/10 02:27:02;;;;;;;22.03;13.50;;;4.30;92.20;;;;;;5072857;28;20485;-60
2023/04/10 02:29:29;;;;;;;17.50;11.07;;;4.30;92.10;;;;;;5085931;28;20465;-60
2023/04/10 02:31:56;;;;;;;28.63;13.90;;;4.10;92.50;;;;;;5076087;28;20470;-60
2023/04/10 02:34:24;;;;;;;19.53;11.80;;;4.10;92.80;;;;;;5052740;28;20484;-60
2023/04/10 02:36:51;;;;;;;18.80;11.40;;;4.10;92.90;;;;;;5068961;28;20531;-60
2023/04/10 02:39:17;;;;;;;21.97;10.30;;;4.20;92.90;;;;;;5089264;28;20588;-60
2023/04/10 02:41:45;;;;;;;22.33;12.93;;;4.10;93.10;;;;;;5035701;28;20487;-60
2023/04/10 02:44:13;;;;;;;24.80;12.50;;;4.20;93.50;;;;;;5065818;28;20985;-60
2023/04/10 02:46:40;;;;;;;30.20;13.30;;;4.10;93.00;;;;;;5087358;28;20478;-60
2023/04/10 02:49:09;;;;;;;16.57;10.47;;;4.20;92.90;;;;;;5084035;28;20477;-60
2023/04/10 02:51:39;;;;;;;19.47;10.93;;;4.10;92.70;;;;;;5045925;28;20737;-60
2023/04/10 02:54:06;;;;;;;23.27;10.80;;;4.00;92.50;;;;;;5049763;28;20602;-60
2023/04/10 02:56:34;;;;;;;19.07;11.43;;;3.90;92.60;;;;;;5054507;28;20669;-60
2023/04/10 02:59:02;;;;;;;24.00;13.37;;;3.80;93.00;;;;;;5082752;28;20477;-60
2023/04/10 03:01:32;;;;;;;20.60;12.23;;;3.70;93.50;;;;;;5068806;28;20877;-60
2023/04/10 03:03:59;;;;;;;27.40;14.00;;;3.80;93.50;;;;;;5086849;28;20470;-60
2023/04/10 03:06:29;;;;;;;28.37;12.00;;;3.90;93.40;;;;;;5062028;28;20487;-60
2023/04/10 03:08:57;;;;;;;30.97;16.33;;;3.90;93.20;;;;;;5067366;28;21567;-60
2023/04/10 03:11:24;;;;;;;20.87;11.93;;;3.90;92.90;;;;;;5088828;28;20478;-60
2023/04/10 03:13:51;;;;;;;31.90;12.27;;;3.90;93.10;;;;;;5084162;28;20484;-60
2023/04/10 03:16:17;;;;;;;27.37;13.90;;;3.90;93.00;;;;;;5076319;28;21289;-60
2023/04/10 03:18:44;;;;;;;21.83;12.57;;;4.00;93.20;;;;;;5088953;28;20482;-60
2023/04/10 03:21:11;;;;;;;43.53;13.90;;;4.00;93.10;;;;;;5087855;28;20836;-60
2023/04/10 03:23:37;;;;;;;20.43;11.30;;;4.00;93.20;;;;;;5075558;28;20484;-60
2023/04/10 03:26:06;;;;;;;33.20;16.10;;;4.00;93.10;;;;;;5057181;28;20481;-60
2023/04/10 03:28:35;;;;;;;20.80;11.73;;;4.10;92.90;;;;;;5062334;28;20509;-60
2023/04/10 03:31:02;;;;;;;24.90;13.13;;;4.00;92.70;;;;;;5073913;28;20478;-60
2023/04/10 03:33:29;;;;;;;22.13;12.07;;;4.00;92.50;;;;;;5073075;28;20485;-60
2023/04/10 03:35:56;;;;;;;26.63;11.83;;;3.90;92.80;;;;;;5081781;28;20486;-60
2023/04/10 03:38:22;;;;;;;19.07;12.80;;;3.80;93.00;;;;;;5072369;28;21076;-60
2023/04/10 03:40:49;;;;;;;23.80;13.70;;;3.70;93.40;;;;;;5086049;28;20551;-60
2023/04/10 03:43:17;;;;;;;23.20;10.90;;;3.80;93.50;;;;;;5073689;28;20757;-60
2023/04/10 03:45:44;;;;;;;29.43;15.90;;;3.80;93.30;;;;;;5069779;28;20486;-60
2023/04/10 03:48:11;;;;;;;22.57;12.63;;;3.90;93.20;;;;;;5071870;28;21025;-60
2023/04/10 03:50:38;;;;;;;30.40;11.80;;;3.90;92.80;;;;;;5072878;28;20508;-60
2023/04/10 03:53:05;;;;;;;16.23;10.27;;;3.90;92.60;;;;;;5079682;28;20481;-60
2023/04/10 03:55:32;;;;;;;24.23;12.70;;;3.70;92.60;;;;;;5068818;28;20467;-60
2023/04/10 03:57:58;;;;;;;23.00;12.47;;;3.70;93.00;;;;;;5079292;28;20466;-60
2023/04/10 04:00:27;;;;;;;18.70;10.77;;;3.70;92.90;;;;;;5069530;28;20490;-60
2023/04/10 04:02:54;;;;;;;33.83;16.30;;;3.90;93.10;;;;;;5072787;28;20482;-60
2023/04/10 04:05:20;;;;;;;36.80;13.60;;;3.80;93.00;;;;;;5080275;28;20762;-60
2023/04/10 04:07:47;;;;;;;26.13;14.07;;;3.80;93.10;;;;;;5064329;28;20484;-60
2023/04/10 04:10:14;;;;;;;27.40;13.30;;;3.80;93.20;;;;;;5079151;28;20473;-60
2023/04/10 04:12:40;;;;;;;19.67;11.13;;;3.70;93.60;;;;;;5085956;28;20467;-60
2023/04/10 04:15:08;;;;;;;21.60;11.90;;;3.80;93.30;;;;;;5082219;28;20538;-60
2023/04/10 04:17:36;;;;;;;18.50;9.87;;;3.80;93.10;;;;;;5057034;28;20470;-60
2023/04/10 04:20:03;;;;;;;24.53;11.10;;;3.90;93.00;;;;;;5077409;28;20482;-60
2023/04/10 04:22:30;;;;;;;20.87;11.23;;;3.90;92.90;;;;;;5085731;28;20477;-60
2023/04/10 04:24:56;;;;;;;34.50;16.47;;;3.90;93.00;;;;;;5067768;28;20806;-60
2023/04/10 04:27:23;;;;;;;40.37;12.00;;;3.90;93.00;;;;;;5061543;28;20482;-60
2023/04/10 04:29:50;;;;;;;32.00;17.10;;;3.90;92.80;;;;;;5080559;28;20505;-60
2023/04/10 04:32:16;;;;;;;25.00;13.70;;;3.90;92.80;;;;;;5051455;28;20484;-60
2023/04/10 04:34:44;;;;;;;19.40;11.20;;;3.90;92.70;;;;;;5069771;28;20477;-60
2023/04/10 04:37:11;;;;;;;22.83;12.53;;;3.90;92.60;;;;;;5061997;28;20474;-60
2023/04/10 04:39:38;;;;;;;19.63;11.13;;;3.90;92.60;;;;;;5070888;28;20501;-60
2023/04/10 04:42:06;;;;;;;37.63;11.17;;;3.80;92.70;;;;;;5048855;28;20903;-60
2023/04/10 04:44:33;;;;;;;28.67;11.43;;;3.90;92.70;;;;;;5078692;28;20495;-60
2023/04/10 04:47:02;;;;;;;29.20;15.00;;;3.90;92.60;;;;;;5052323;28;20899;-60
2023/04/10 04:49:28;;;;;;;19.33;10.13;;;3.90;92.50;;;;;;5057196;28;20470;-60
2023/04/10 04:51:56;;;;;;;33.37;16.53;;;3.90;92.50;;;;;;5074264;28;21022;-60
2023/04/10 04:54:23;;;;;;;20.40;10.60;;;3.90;92.40;;;;;;5076655;28;20481;-60
2023/04/10 04:56:50;;;;;;;31.67;15.30;;;3.80;92.60;;;;;;5048688;28;20489;-60
2023/04/10 05:00:14;;;;;;;19.77;10.50;;;3.80;92.60;;;;;;5047711;28;20471;-60
2023/04/10 05:03:38;;;;;;;21.60;10.73;;;3.70;92.50;;;;;;5057799;28;20494;-60
2023/04/10 05:06:05;;;;;;;20.43;10.47;;;3.70;92.50;;;;;;5047288;28;20693;-60
2023/04/10 05:08:33;;;;;;;21.77;12.43;;;3.70;92.60;;;;;;5062677;28;20887;-60
2023/04/10 05:11:00;;;;;;;30.87;14.80;;;3.70;92.60;;;;;;5067874;28;20550;-60
2023/04/10 05:13:27;;;;;;;23.43;11.87;;;3.60;92.60;;;;;;5066449;28;20506;-60
2023/04/10 05:15:53;;;;;;;28.93;15.10;;;3.60;92.80;;;;;;5058739;28;20479;-60
2023/04/10 05:18:22;;;;;;;21.50;11.80;;;3.70;92.80;;;;;;5038138;28;20819;-60
2023/04/10 05:20:49;;;;;;;27.97;14.33;;;3.70;92.80;;;;;;5069490;28;21064;-60
2023/04/10 05:23:16;;;;;;;25.17;11.90;;;3.70;92.80;;;;;;5063343;28;20479;-60
2023/04/10 05:25:44;;;;;;;17.73;11.00;;;3.80;92.80;;;;;;5049381;28;20933;-60
2023/04/10 05:28:10;;;;;;;22.53;12.63;;;3.80;92.80;;;;;;5068044;28;20536;-60
2023/04/10 05:30:37;;;;;;;22.87;12.13;;;3.90;92.90;;;;;;5059635;28;20483;-60
2023/04/10 05:33:04;;;;;;;20.33;11.47;;;3.90;92.90;;;;;;5063104;28;20479;-60
2023/04/10 05:35:30;;;;;;;25.83;15.30;;;3.90;92.80;;;;;;5057397;28;20497;-60
2023/04/10 05:37:59;;;;;;;35.13;15.90;;;3.90;93.00;;;;;;5055766;27;20905;-60
2023/04/10 05:40:26;;;;;;;22.30;11.50;;;3.90;92.90;;;;;;5072577;28;20483;-60
2023/04/10 05:42:54;;;;;;;34.57;16.10;;;3.90;92.60;;;;;;5057866;28;20474;-60
2023/04/10 05:45:20;;;;;;;19.63;10.53;;;3.90;92.50;;;;;;5055924;28;20479;-60
2023/04/10 05:47:47;;;;;;;24.87;13.57;;;3.90;92.60;;;;;;5056155;28;20520;-60
2023/04/10 05:50:14;;;;;;;30.00;12.57;;;4.00;92.80;;;;;;5046051;28;20914;-60
2023/04/10 05:52:40;;;;;;;26.53;13.43;;;4.00;92.90;;;;;;5081412;28;20473;-60
2023/04/10 05:55:08;;;;;;;23.60;11.83;;;4.20;93.10;;;;;;5061361;28;20647;-60
2023/04/10 05:57:35;;;;;;;28.50;11.27;;;4.40;93.90;;;;;;5073407;28;20511;-60
2023/04/10 06:00:04;;;;;;;27.70;14.70;;;4.80;94.30;;;;;;5079476;28;20491;-60
2023/04/10 06:02:30;;;;;;;28.80;14.40;;;5.10;94.20;;;;;;5085379;28;20474;-60
2023/04/10 06:04:57;;;;;;;31.83;17.20;;;5.70;93.40;;;;;;5083506;28;20607;-60
2023/04/10 06:07:24;;;;;;;19.20;12.50;;;6.00;93.00;;;;;;5078756;28;20477;-60
2023/04/10 06:09:51;;;;;;;23.00;12.50;;;6.20;92.60;;;;;;5035949;28;20817;-60
2023/04/10 06:12:21;;;;;;;22.93;12.77;;;6.50;92.30;;;;;;5064493;28;20602;-60
2023/04/10 06:14:48;;;;;;;36.07;21.53;;;6.70;92.40;;;;;;5067846;28;20884;-60
2023/04/10 06:17:16;;;;;;;30.90;17.50;;;7.10;92.70;;;;;;5058936;28;20477;-60
2023/04/10 06:19:42;;;;;;;24.43;16.50;;;7.50;92.80;;;;;;5082797;28;20485;-60
2023/04/10 06:22:09;;;;;;;19.83;13.90;;;7.80;92.50;;;;;;5073627;28;20557;-60
2023/04/10 06:24:36;;;;;;;22.47;15.03;;;8.10;92.40;;;;;;5056087;28;20487;-60
2023/04/10 06:27:02;;;;;;;44.13;18.60;;;8.50;92.40;;;;;;5075495;28;20484;-60
2023/04/10 06:29:29;;;;;;;29.97;17.57;;;8.90;92.60;;;;;;5077889;28;20822;-60
2023/04/10 06:31:56;;;;;;;22.23;14.70;;;9.40;92.50;;;;;;5058596;28;20569;-61
2023/04/10 06:34:24;;;;;;;25.90;12.63;;;10.30;91.20;;;;;;5073322;28;20535;-61
2023/04/10 06:36:51;;;;;;;21.60;14.13;;;10.90;90.70;;;;;;5074316;28;20782;-61
2023/04/10 06:39:17;;;;;;;15.00;11.37;;;11.70;90.50;;;;;;5060429;28;20533;-61
2023/04/10 06:41:44;;;;;;;30.93;12.23;;;12.90;89.30;;;;;;5055350;28;20600;-61
2023/04/10 06:44:11;;;;;;;18.17;13.03;;;13.50;88.40;;;;;;5057002;28;20549;-61
2023/04/10 06:46:38;;;;;;;13.33;10.73;;;14.20;87.50;;;;;;5079849;28;20816;-62
2023/04/10 06:49:05;;;;;;;17.63;12.60;;;15.10;87.20;;;;;;5088198;28;20880;-61
2023/04/10 06:51:33;;;;;;;15.93;11.53;;;15.40;83.80;;;;;;5085093;28;20566;-61
2023/04/10 06:54:00;;;;;;;18.13;12.60;;;15.80;83.80;;;;;;5062061;28;20484;-61
2023/04/10 06:56:27;;;;;;;21.73;11.27;;;16.40;83.00;;;;;;5043889;28;20935;-61
2023/04/10 06:58:54;;;;;;;16.33;12.53;;;16.50;82.60;;;;;;5077759;28;20509;-61
2023/04/10 07:01:20;;;;;;;16.40;11.53;;;16.90;82.90;;;;;;5071524;28;20476;-61
2023/04/10 07:03:47;;;;;;;26.40;11.50;;;17.50;82.20;;;;;;5069125;28;20486;-61
2023/04/10 07:06:14;;;;;;;15.83;12.50;;;17.70;80.40;;;;;;5055059;28;20487;-61
2023/04/10 07:08:41;;;;;;;12.50;10.97;;;17.90;79.90;;;;;;5042859;28;20465;-61
2023/04/10 07:11:08;;;;;;;27.37;11.77;;;18.00;80.40;;;;;;5059581;28;20490;-61
2023/04/10 07:13:37;;;;;;;14.57;11.17;;;18.00;79.10;;;;;;5070634;28;20882;-61
2023/04/10 07:16:05;;;;;;;13.30;10.53;;;18.00;79.20;;;;;;5077956;28;21330;-61
2023/04/10 07:18:31;;;;;;;13.30;11.90;;;17.90;78.50;;;;;;5071951;28;20511;-61
2023/04/10 07:20:58;;;;;;;12.90;11.43;;;17.90;77.70;;;;;;5078222;28;20868;-62
2023/04/10 07:23:25;;;;;;;12.80;10.67;;;17.90;78.30;;;;;;5075348;28;21190;-62
2023/04/10 07:25:53;;;;;;;15.63;13.40;;;18.00;78.60;;;;;;5066626;28;20975;-62
2023/04/10 07:28:19;;;;;;;12.67;10.90;;;18.10;77.80;;;;;;5087226;28;20478;-62
2023/04/10 07:30:46;;;;;;;16.73;12.60;;;18.20;77.20;;;;;;5073717;28;20985;-62
2023/04/10 07:33:13;;;;;;;13.37;11.40;;;18.30;76.90;;;;;;5074817;28;20982;-62
2023/04/10 07:35:39;;;;;;;14.37;12.57;;;18.40;77.00;;;;;;5074131;28;20963;-62
2023/04/10 07:38:06;;;;;;;13.87;10.90;;;18.30;76.50;;;;;;5053559;28;20482;-62
2023/04/10 07:40:32;;;;;;;19.30;11.60;;;18.10;76.80;;;;;;5074715;28;20492;-62
2023/04/10 07:43:00;;;;;;;14.13;11.63;;;18.10;77.40;;;;;;5050532;28;20845;-62
2023/04/10 07:45:27;;;;;;;13.10;10.53;;;18.00;78.10;;;;;;5056560;28;20482;-62
2023/04/10 07:47:54;;;;;;;12.30;11.10;;;17.40;73.30;;;;;;5065331;28;20494;-62
2023/04/10 07:50:21;;;;;;;11.77;9.73;;;17.20;74.00;;;;;;5068272;28;20716;-62
2023/04/10 07:52:48;;;;;;;11.10;9.90;;;17.10;72.70;;;;;;5072690;28;20820;-62
2023/04/10 07:55:15;;;;;;;9.70;8.53;;;16.80;73.00;;;;;;5074517;28;20482;-62
2023/04/10 07:57:42;;;;;;;7.70;6.17;;;16.00;70.60;;;;;;5044352;28;20474;-62
2023/04/10 08:00:11;;;;;;;10.57;9.50;;;15.70;70.30;;;;;;5062345;28;20490;-62
2023/04/10 08:02:39;;;;;;;20.63;9.77;;;15.20;71.80;;;;;;5086246;28;20501;-62
2023/04/10 08:05:06;;;;;;;11.87;8.80;;;14.80;73.60;;;;;;5079583;28;20486;-62
2023/04/10 08:07:35;;;;;;;10.40;8.83;;;14.50;72.70;;;;;;5084366;28;20967;-62
2023/04/10 08:10:02;;;;;;;13.30;9.37;;;14.70;75.40;;;;;;5072496;28;20580;-62
2023/04/10 08:12:28;;;;;;;10.17;9.07;;;14.80;75.80;;;;;;5075320;28;21512;-62
2023/04/10 08:14:55;;;;;;;12.70;10.33;;;15.10;77.70;;;;;;5075626;28;21005;-62
2023/04/10 08:17:23;;;;;;;13.97;7.80;;;14.80;74.80;;;;;;5083337;28;20485;-62
2023/04/10 08:19:50;;;;;;;10.47;7.70;;;14.80;73.50;;;;;;5083880;28;20473;-62
2023/04/10 08:22:16;;;;;;;12.67;7.60;;;14.50;70.20;;;;;;5087707;28;20646;-62
2023/04/10 08:24:43;;;;;;;13.73;6.93;;;14.30;70.10;;;;;;5064504;28;20961;-62
2023/04/10 08:27:10;;;;;;;10.80;8.10;;;14.30;71.70;;;;;;5064358;28;21173;-62
2023/04/10 08:29:36;;;;;;;9.07;7.17;;;14.00;69.50;;;;;;5059690;28;20835;-62
2023/04/10 08:32:03;;;;;;;13.50;7.40;;;14.10;70.70;;;;;;5083755;28;20994;-62
2023/04/10 08:34:31;;;;;;;7.13;6.43;;;13.90;69.20;;;;;;5086354;28;21009;-62
2023/04/10 08:36:58;;;;;;;8.10;6.73;;;14.10;72.00;;;;;;5080734;28;20926;-62
2023/04/10 08:39:24;;;;;;;12.03;6.80;;;14.20;70.10;;;;;;5086680;28;20490;-62
2023/04/10 08:41:51;;;;;;;10.43;8.30;;;14.20;70.60;;;;;;5086331;28;20482;-62
2023/04/10 08:44:18;;;;;;;9.57;8.57;;;14.40;70.90;;;;;;5081905;28;20496;-62
2023/04/10 08:46:45;;;;;;;16.70;7.07;;;14.50;72.40;;;;;;5087715;28;20474;-62
2023/04/10 08:49:23;;;;;;;9.87;8.43;;;14.40;71.50;;;;;;5069858;28;20997;-62
2023/04/10 08:51:55;;;;;;;10.30;8.50;;;14.40;71.40;;;;;;5087472;28;20478;-62
2023/04/10 08:54:27;;;;;;;28.53;8.77;;;14.50;69.30;;;;;;5085281;28;21024;-62
2023/04/10 08:56:55;;;;;;;10.90;8.47;;;14.50;72.60;;;;;;5070058;28;20486;-62
2023/04/10 08:59:22;;;;;;;12.83;7.13;;;14.70;70.20;;;;;;5080112;28;20466;-62
2023/04/10 09:01:49;;;;;;;10.17;8.90;;;14.80;72.20;;;;;;5072228;28;20921;-61
2023/04/10 09:04:16;;;;;;;9.30;6.80;;;14.50;68.60;;;;;;5085390;28;20727;-62
2023/04/10 09:06:43;;;;;;;31.17;7.20;;;15.00;72.70;;;;;;5077780;28;21368;-62
2023/04/10 09:09:11;;;;;;;7.93;5.70;;;15.10;68.00;;;;;;5084581;28;21004;-62
2023/04/10 09:11:59;;;;;;;17.53;7.93;;;15.60;70.30;;;;;;5085166;28;20504;-62
2023/04/10 09:14:27;;;;;;;10.20;8.20;;;15.80;70.30;;;;;;5089206;28;20849;-62
2023/04/10 09:17:10;;;;;;;12.50;10.30;;;15.90;68.20;;;;;;5073169;28;20488;-62
2023/04/10 09:19:36;;;;;;;6.70;6.00;;;15.70;68.80;;;;;;5084085;28;20477;-62
2023/04/10 09:22:03;;;;;;;8.57;7.20;;;15.70;69.00;;;;;;5056669;28;20477;-62
2023/04/10 09:24:35;;;;;;;7.47;6.17;;;15.60;69.60;;;;;;5091757;28;21054;-62
2023/04/10 09:27:02;;;;;;;9.37;8.37;;;15.60;71.00;;;;;;5088520;28;20470;-62
2023/04/10 09:29:38;;;;;;;8.00;7.10;;;;;;;;;;5077759;28;21091;-62
2023/04/10 09:32:05;;;;;;;7.57;5.03;;;15.80;70.50;;;;;;5075088;28;20889;-62
2023/04/10 09:34:32;;;;;;;7.27;5.50;;;16.00;69.30;;;;;;5091209;28;20477;-62
2023/04/10 09:37:00;;;;;;;9.47;7.47;;;;;;;;;;5065946;28;21016;-61
2023/04/10 09:39:35;;;;;;;7.57;6.70;;;16.30;71.50;;;;;;5072069;28;20499;-61
2023/04/10 09:42:02;;;;;;;9.77;7.50;;;16.30;69.30;;;;;;5075005;28;20546;-62
2023/04/10 09:44:30;;;;;;;17.00;5.93;;;16.10;66.50;;;;;;5071139;28;20477;-62
2023/04/10 09:46:57;;;;;;;9.50;8.50;;;16.30;72.00;;;;;;5067899;28;20596;-62
2023/04/10 09:49:24;;;;;;;6.50;4.73;;;16.40;69.70;;;;;;5090877;28;20477;-62
2023/04/10 09:51:51;;;;;;;17.37;6.97;;;16.40;67.30;;;;;;5081987;28;20488;-63
2023/04/10 09:54:17;;;;;;;6.77;6.17;;;16.20;70.10;;;;;;5081862;28;21020;-62
2023/04/10 09:56:47;;;;;;;6.83;5.10;;;16.30;67.50;;;;;;5069429;28;20883;-61
2023/04/10 09:59:15;;;;;;;29.57;7.50;;;16.20;67.50;;;;;;5080039;28;20488;-61
2023/04/10 10:01:42;;;;;;;6.00;5.40;;;16.20;68.50;;;;;;5078664;28;20477;-62
2023/04/10 10:04:10;;;;;;;7.90;6.37;;;17.60;68.70;;;;;;5090092;28;20489;-62
2023/04/10 10:06:39;;;;;;;11.33;6.00;;;16.20;67.50;;;;;;5086959;28;20603;-62
2023/04/10 10:09:05;;;;;;;5.83;5.27;;;16.20;67.70;;;;;;5081346;28;20985;-62
2023/04/10 10:11:34;;;;;;;7.07;6.47;;;16.20;67.80;;;;;;5071714;28;20474;-62
2023/04/10 10:14:03;;;;;;;12.50;6.23;;;16.20;70.70;;;;;;5079333;28;21220;-62
2023/04/10 10:16:37;;;;;;;8.17;7.37;;;16.00;70.30;;;;;;5061157;28;20485;-61
2023/04/10 10:19:10;;;;;;;6.37;5.70;;;16.10;68.00;;;;;;5065471;28;20488;-62
2023/04/10 10:21:38;;;;;;;5.70;5.03;;;16.20;68.50;;;;;;5072605;28;20802;-62
2023/04/10 10:24:09;;;;;;;6.37;5.67;;;16.30;71.40;;;;;;5077523;28;20477;-62
2023/04/10 10:26:36;;;;;;;8.90;5.40;;;16.50;70.10;;;;;;5087567;28;20473;-62
2023/04/10 10:29:09;;;;;;;7.70;7.00;;;16.70;70.90;;;;;;5080760;28;20876;-62
2023/04/10 10:31:36;;;;;;;5.73;4.97;;;16.80;69.00;;;;;;5074298;28;20458;-62
2023/04/10 10:34:06;;;;;;;7.47;6.73;;;16.90;69.00;;;;;;5089347;28;20473;-62
2023/04/10 10:36:33;;;;;;;7.77;7.00;;;17.10;70.70;;;;;;5060968;28;20525;-62
2023/04/10 10:39:18;;;;;;;14.23;8.20;;;16.90;69.10;;;;;;5081548;28;21024;-62
2023/04/10 10:41:54;;;;;;;9.10;7.13;;;17.00;69.10;;;;;;5090007;28;20462;-62
2023/04/10 10:44:31;;;;;;;12.97;7.00;;;17.30;72.90;;;;;;5062045;28;20910;-61
2023/04/10 10:47:07;;;;;;;8.70;7.80;;;17.40;76.70;;;;;;5068413;28;20720;-62
2023/04/10 10:49:54;;;;;;;8.03;7.23;;;17.10;66.90;;;;;;5048737;28;20481;-63
2023/04/10 10:52:44;;;;;;;8.53;7.67;;;17.10;70.40;;;;;;5084259;28;20473;-62
2023/04/10 10:55:35;;;;;;;6.47;5.30;;;17.00;70.80;;;;;;5089376;28;20474;-63
2023/04/10 10:58:04;;;;;;;8.70;6.57;;;17.10;69.30;;;;;;5078160;28;20500;-63
2023/04/10 11:01:07;;;;;;;8.20;7.00;;;17.30;70.00;;;;;;5077179;28;20484;-63
2023/04/10 11:03:33;;;;;;;8.63;7.77;;;17.10;71.40;;;;;;5080006;28;21009;-63
2023/04/10 11:06:02;;;;;;;9.83;8.70;;;17.20;72.40;;;;;;5084596;28;20473;-62
2023/04/10 11:08:42;;;;;;;23.47;8.60;;;17.10;70.80;;;;;;5077634;28;20487;-63
2023/04/10 11:11:11;;;;;;;6.93;6.40;;;17.40;73.70;;;;;;5082158;28;20478;-63
2023/04/10 11:13:39;;;;;;;10.40;6.50;;;17.50;72.50;;;;;;5053386;28;20482;-62
2023/04/10 11:16:10;;;;;;;7.27;6.57;;;17.60;70.60;;;;;;5047111;28;20486;-63
2023/04/10 11:19:01;;;;;;;6.60;5.80;;;17.60;68.60;;;;;;5081939;28;20969;-62
2023/04/10 11:21:29;;;;;;;7.83;7.03;;;17.70;71.60;;;;;;5081440;28;21291;-63
2023/04/10 11:24:06;;;;;;;12.43;9.40;;;17.70;67.50;;;;;;5076982;28;20597;-62
2023/04/10 11:26:38;;;;;;;8.67;7.77;;;17.50;67.70;;;;;;5083548;28;20477;-62
2023/04/10 11:29:05;;;;;;;9.67;7.23;;;17.60;69.30;;;;;;5077323;28;20553;-63
2023/04/10 11:31:34;;;;;;;20.87;7.00;;;17.70;68.90;;;;;;5086893;28;20478;-62
2023/04/10 11:34:03;;;;;;;7.97;6.63;;;18.00;72.00;;;;;;5066701;28;20572;-62
2023/04/10 11:36:31;;;;;;;8.50;7.50;;;17.90;70.90;;;;;;5082274;28;20959;-62
2023/04/10 11:38:58;;;;;;;14.23;7.83;;;17.80;73.00;;;;;;5060190;28;21047;-62
2023/04/10 11:41:30;;;;;;;8.63;7.80;;;17.70;70.00;;;;;;5076343;28;20876;-63
2023/04/10 11:43:58;;;;;;;32.13;8.83;;;;;;;;;;5072803;28;20890;-63
2023/04/10 11:46:24;;;;;;;8.63;5.37;;;18.20;71.30;;;;;;5066901;28;20477;-62
2023/04/10 11:48:56;;;;;;;7.30;5.97;;;18.40;70.30;;;;;;5069904;28;20486;-63
2023/04/10 11:51:23;;;;;;;12.10;7.60;;;;;;;;;;5080528;28;20501;-63
2023/04/10 11:53:49;;;;;;;7.93;7.17;;;18.40;67.90;;;;;;5078055;28;20488;-63
2023/04/10 11:56:21;;;;;;;7.40;6.60;;;18.30;69.50;;;;;;5075072;28;20481;-63
2023/04/10 11:58:52;;;;;;;9.30;7.60;;;18.20;67.70;;;;;;5080225;28;20506;-62
2023/04/10 12:01:21;;;;;;;7.70;7.00;;;18.30;68.90;;;;;;5082818;28;20470;-63
2023/04/10 12:03:48;;;;;;;9.90;8.93;;;18.30;68.30;;;;;;5071868;28;20493;-63
2023/04/10 12:06:18;;;;;;;17.83;7.40;;;18.20;66.90;;;;;;5066487;28;20477;-63
2023/04/10 12:08:48;;;;;;;7.07;6.43;;;18.20;69.00;;;;;;5050439;28;20943;-62
2023/04/10 12:11:19;;;;;;;7.10;6.17;;;18.20;66.70;;;;;;5084567;28;20485;-63
2023/04/10 12:13:46;;;;;;;12.47;7.23;;;18.30;68.20;;;;;;5074286;28;20478;-64
2023/04/10 12:16:13;;;;;;;9.57;7.50;;;;;;;;;;5078394;28;20963;-64
2023/04/10 12:18:41;;;;;;;6.93;5.57;;;;;;;;;;5086683;28;20482;-63
2023/04/10 12:21:08;;;;;;;5.60;4.70;;;18.60;65.90;;;;;;5082564;28;21024;-63
2023/04/10 12:23:37;;;;;;;6.10;5.50;;;18.70;69.30;;;;;;5077361;28;20890;-62
2023/04/10 12:26:11;;;;;;;6.40;5.80;;;18.70;69.40;;;;;;5083425;28;20719;-63
2023/04/10 12:28:39;;;;;;;7.17;5.77;;;18.70;69.80;;;;;;5084334;28;20477;-63
2023/04/10 12:31:06;;;;;;;7.90;7.10;;;18.40;67.50;;;;;;5079225;28;20481;-64
2023/04/10 12:33:33;;;;;;;18.00;6.30;;;18.40;70.20;;;;;;5077354;28;21217;-63
2023/04/10 12:36:00;;;;;;;10.37;9.23;;;18.10;67.50;;;;;;5068022;28;20586;-63
2023/04/10 12:38:39;;;;;;;7.30;6.50;;;18.20;71.30;;;;;;5083608;28;20473;-64
2023/04/10 12:41:07;;;;;;;7.20;6.53;;;18.10;71.40;;;;;;5084507;28;20469;-63
2023/04/10 12:43:35;;;;;;;7.80;6.80;;;18.20;71.10;;;;;;5083445;28;20490;-63
2023/04/10 12:46:03;;;;;;;14.17;8.70;;;18.20;69.50;;;;;;5082836;28;20578;-63
2023/04/10 12:48:30;;;;;;;10.30;8.10;;;18.30;70.90;;;;;;5084662;28;22373;-64
2023/04/10 12:50:57;;;;;;;13.10;9.43;;;18.40;72.70;;;;;;5082580;28;20473;-64